Time;durP1;ratioP1;P1;durP2;ratioP2;P2;SDS_P1;SDS_P2;PMS_P1;PMS_P2;Temp;Humidity;BMP_temperature;BMP_pressure;BME280_temperature;BME280_humidity;BME280_pressure;Samples;Min_cycle;Max_cycle;Signal;HPM_P1;HPM_P2
2023/07/24 00:00:40;;;;;;;;;;;;;;;19.43;67.28;101099.20;107650;1251;97838;-70
2023/07/24 00:03:28;;;;;;;;;;;;;;;19.41;67.06;101095.05;107625;1254;113329;-69
2023/07/24 00:06:00;;;;;;;;;;;;;;;19.40;67.16;101091.71;107652;1253;109694;-67
2023/07/24 00:08:31;;;;;;;;;;;;;;;19.37;66.77;101092.05;107613;1254;107668;-68
2023/07/24 00:11:00;;;;;;;;;;;;;;;19.34;67.12;101089.73;107615;1251;97835;-68
2023/07/24 00:13:28;;;;;;;;;;;;;;;19.30;67.43;101093.08;107570;1255;97908;-69
2023/07/24 00:15:59;;;;;;;;;;;;;;;19.28;67.43;101090.23;107653;1254;111414;-68
2023/07/24 00:18:27;;;;;;;;;;;;;;;19.26;67.46;101094.83;107655;1251;110329;-68
2023/07/24 00:20:55;;;;;;;;;;;;;;;19.22;67.52;101092.95;107600;1251;108256;-68
2023/07/24 00:23:23;;;;;;;;;;;;;;;19.19;67.33;101093.52;107586;1254;97695;-69
2023/07/24 00:25:51;;;;;;;;;;;;;;;19.16;67.56;101091.64;107683;1254;97943;-69
2023/07/24 00:28:20;;;;;;;;;;;;;;;19.15;67.45;101093.60;107654;1251;111801;-68
2023/07/24 00:30:47;;;;;;;;;;;;;;;19.13;68.16;101090.54;107626;1251;108709;-71
2023/07/24 00:33:17;;;;;;;;;;;;;;;19.10;68.24;101090.03;107666;1251;107464;-70
2023/07/24 00:35:46;;;;;;;;;;;;;;;19.05;68.26;101084.91;107617;1251;97821;-69
2023/07/24 00:38:14;;;;;;;;;;;;;;;19.03;68.33;101086.67;107584;1251;97714;-70
2023/07/24 00:40:42;;;;;;;;;;;;;;;19.01;68.49;101090.41;107618;1251;112024;-68
2023/07/24 00:43:12;;;;;;;;;;;;;;;18.96;68.29;101088.36;107605;1254;110015;-67
2023/07/24 00:45:40;;;;;;;;;;;;;;;18.94;69.59;101085.77;107632;1253;108420;-69
2023/07/24 00:48:08;;;;;;;;;;;;;;;18.89;69.76;101082.61;107610;1254;97807;-69
2023/07/24 00:50:40;;;;;;;;;;;;;;;18.86;69.51;101079.92;107683;1254;97825;-68
2023/07/24 00:53:10;;;;;;;;;;;;;;;18.84;69.61;101081.06;107583;1254;112147;-71
2023/07/24 00:55:38;;;;;;;;;;;;;;;18.83;69.52;101076.27;107569;1254;109913;-73
2023/07/24 00:58:07;;;;;;;;;;;;;;;18.83;69.27;101075.54;107643;1251;108261;-68
2023/07/24 01:00:37;;;;;;;;;;;;;;;18.83;69.21;101074.29;107638;1251;97835;-67
2023/07/24 01:03:05;;;;;;;;;;;;;;;18.82;69.19;101073.27;107617;1251;98390;-67
2023/07/24 01:05:34;;;;;;;;;;;;;;;18.82;69.50;101072.12;107600;1256;112117;-69
2023/07/24 01:08:02;;;;;;;;;;;;;;;18.80;69.36;101068.83;107650;1254;109653;-69
2023/07/24 01:10:31;;;;;;;;;;;;;;;18.76;70.88;101067.05;107583;1251;108084;-68
2023/07/24 01:13:08;;;;;;;;;;;;;;;18.71;70.51;101064.77;107611;1251;97903;-68
2023/07/24 01:15:42;;;;;;;;;;;;;;;18.68;70.44;101064.42;107551;1254;97713;-68
2023/07/24 01:18:10;;;;;;;;;;;;;;;18.64;70.34;101062.94;107524;1256;111762;-68
2023/07/24 01:20:50;;;;;;;;;;;;;;;18.62;70.17;101061.14;107650;1251;109740;-70
2023/07/24 01:23:21;;;;;;;;;;;;;;;18.60;70.04;101062.48;107610;1256;107733;-70
2023/07/24 01:25:56;;;;;;;;;;;;;;;18.58;69.93;101060.73;107566;1251;98091;-67
2023/07/24 01:28:24;;;;;;;;;;;;;;;18.57;70.90;101059.38;107553;1255;97723;-67
2023/07/24 01:30:54;;;;;;;;;;;;;;;18.56;71.18;101059.17;107622;1250;111545;-68
2023/07/24 01:33:22;;;;;;;;;;;;;;;18.54;70.54;101064.63;107594;1255;110526;-68
2023/07/24 01:35:55;;;;;;;;;;;;;;;18.54;70.48;101060.48;107582;1251;107208;-69
2023/07/24 01:38:25;;;;;;;;;;;;;;;18.51;70.55;101067.38;107543;1254;97858;-69
2023/07/24 01:40:54;;;;;;;;;;;;;;;18.48;70.56;101072.82;107596;1251;97915;-69
2023/07/24 01:43:22;;;;;;;;;;;;;;;18.46;70.42;101075.77;107552;1251;111915;-70
2023/07/24 01:45:50;;;;;;;;;;;;;;;18.46;70.38;101080.75;107617;1254;109622;-69
2023/07/24 01:48:18;;;;;;;;;;;;;;;18.45;70.36;101076.92;107602;1256;107971;-69
2023/07/24 01:50:48;;;;;;;;;;;;;;;18.44;70.62;101074.14;107613;1256;97835;-68
2023/07/24 01:53:16;;;;;;;;;;;;;;;18.43;70.89;101073.84;107666;1255;97740;-69
2023/07/24 01:55:44;;;;;;;;;;;;;;;18.40;70.87;101069.10;107583;1257;111222;-69
2023/07/24 01:58:12;;;;;;;;;;;;;;;18.39;70.89;101067.05;107647;1255;109436;-68
2023/07/24 02:00:40;;;;;;;;;;;;;;;18.38;70.79;101070.13;107556;1256;107787;-71
2023/07/24 02:03:08;;;;;;;;;;;;;;;18.36;70.90;101071.06;107622;1255;97994;-71
2023/07/24 02:05:38;;;;;;;;;;;;;;;18.36;70.89;101072.02;107661;1254;97989;-68
2023/07/24 02:08:06;;;;;;;;;;;;;;;18.36;70.96;101075.79;107635;1254;111872;-67
2023/07/24 02:10:36;;;;;;;;;;;;;;;18.37;71.05;101074.09;107616;1257;109333;-68
2023/07/24 02:13:07;;;;;;;;;;;;;;;18.38;70.91;101079.73;107515;1257;107687;-66
2023/07/24 02:15:36;;;;;;;;;;;;;;;18.37;70.55;101079.36;107624;1251;97838;-68
2023/07/24 02:18:04;;;;;;;;;;;;;;;18.35;70.75;101079.16;107598;1251;97841;-70
2023/07/24 02:20:32;;;;;;;;;;;;;;;18.33;70.84;101074.19;107586;1251;111786;-68
2023/07/24 02:23:01;;;;;;;;;;;;;;;18.32;70.77;101077.77;107574;1257;109180;-70
2023/07/24 02:25:29;;;;;;;;;;;;;;;18.31;71.04;101077.50;107547;1254;107091;-69
2023/07/24 02:27:57;;;;;;;;;;;;;;;18.29;70.84;101075.27;107624;1251;97889;-69
2023/07/24 02:30:25;;;;;;;;;;;;;;;18.30;70.93;101068.85;107639;1254;98475;-68
2023/07/24 02:32:53;;;;;;;;;;;;;;;18.30;71.00;101075.59;107634;1256;111044;-68
2023/07/24 02:35:21;;;;;;;;;;;;;;;18.28;71.03;101073.06;107642;1254;109674;-69
2023/07/24 02:37:49;;;;;;;;;;;;;;;18.28;71.02;101069.27;107531;1256;108036;-69
2023/07/24 02:40:17;;;;;;;;;;;;;;;18.29;70.95;101072.44;107545;1254;97807;-70
2023/07/24 02:42:47;;;;;;;;;;;;;;;18.25;71.07;101072.73;107620;1255;97915;-68
2023/07/24 02:45:15;;;;;;;;;;;;;;;18.21;71.27;101070.67;107643;1254;111733;-69
2023/07/24 02:47:43;;;;;;;;;;;;;;;18.17;71.31;101072.00;107635;1254;108431;-68
2023/07/24 02:50:12;;;;;;;;;;;;;;;18.13;71.24;101075.02;107573;1257;108238;-67
2023/07/24 02:52:41;;;;;;;;;;;;;;;18.11;71.58;101074.48;107583;1255;97860;-68
2023/07/24 02:55:09;;;;;;;;;;;;;;;18.12;71.53;101080.23;107657;1254;97880;-68
2023/07/24 02:57:37;;;;;;;;;;;;;;;18.12;71.36;101082.67;107657;1253;110589;-73
2023/07/24 03:00:06;;;;;;;;;;;;;;;18.13;71.26;101081.86;107583;1251;109865;-68
2023/07/24 03:02:34;;;;;;;;;;;;;;;18.13;71.22;101080.08;107528;1251;107155;-69
2023/07/24 03:05:03;;;;;;;;;;;;;;;18.12;71.20;101084.59;107603;1256;97838;-68
2023/07/24 03:07:32;;;;;;;;;;;;;;;18.09;71.06;101085.31;107583;1256;97841;-68
2023/07/24 03:10:00;;;;;;;;;;;;;;;18.05;70.93;101087.74;107566;1251;112055;-67
2023/07/24 03:12:30;;;;;;;;;;;;;;;18.04;71.00;101087.18;107551;1251;108362;-67
2023/07/24 03:14:58;;;;;;;;;;;;;;;18.03;71.16;101088.30;107593;1256;107964;-67
2023/07/24 03:17:26;;;;;;;;;;;;;;;18.03;71.23;101089.79;107537;1257;97997;-68
2023/07/24 03:19:55;;;;;;;;;;;;;;;18.03;71.20;101087.05;107551;1254;97899;-67
2023/07/24 03:22:23;;;;;;;;;;;;;;;18.05;71.27;101084.83;107548;1257;112203;-69
2023/07/24 03:24:51;;;;;;;;;;;;;;;18.07;71.38;101089.30;107466;1255;109097;-68
2023/07/24 03:27:19;;;;;;;;;;;;;;;18.10;71.65;101086.22;107587;1254;108862;-69
2023/07/24 03:29:47;;;;;;;;;;;;;;;18.13;71.68;101087.67;107645;1251;98020;-67
2023/07/24 03:32:15;;;;;;;;;;;;;;;18.17;71.75;101087.06;107635;1250;98471;-67
2023/07/24 03:34:43;;;;;;;;;;;;;;;18.20;71.21;101083.34;107558;1253;111835;-68
2023/07/24 03:37:12;;;;;;;;;;;;;;;18.22;71.44;101084.90;107657;1251;107831;-69
2023/07/24 03:39:40;;;;;;;;;;;;;;;18.25;71.89;101085.63;107564;1254;108402;-68
2023/07/24 03:42:14;;;;;;;;;;;;;;;18.28;71.86;101083.81;107554;1254;97803;-68
2023/07/24 03:44:42;;;;;;;;;;;;;;;18.30;71.71;101083.56;107570;1254;97822;-67
2023/07/24 03:47:10;;;;;;;;;;;;;;;18.34;71.77;101089.53;107629;1254;111812;-67
2023/07/24 03:49:38;;;;;;;;;;;;;;;18.37;71.91;101087.45;107578;1251;109293;-66
2023/07/24 03:52:07;;;;;;;;;;;;;;;18.41;71.92;101083.73;107602;1254;107627;-73
2023/07/24 03:54:35;;;;;;;;;;;;;;;18.45;71.89;101082.03;107597;1251;97944;-69
2023/07/24 03:57:03;;;;;;;;;;;;;;;18.49;71.54;101085.75;107589;1251;98001;-68
2023/07/24 03:59:33;;;;;;;;;;;;;;;18.51;71.40;101085.08;107565;1254;111783;-63
2023/07/24 04:02:01;;;;;;;;;;;;;;;18.54;71.25;101085.55;107569;1250;109646;-67
2023/07/24 04:04:30;;;;;;;;;;;;;;;18.56;71.23;101085.05;107552;1254;107733;-68
2023/07/24 04:06:58;;;;;;;;;;;;;;;18.57;71.33;101081.30;107548;1254;97886;-67
2023/07/24 04:09:26;;;;;;;;;;;;;;;18.63;71.44;101088.40;107509;1254;98354;-67
2023/07/24 04:11:54;;;;;;;;;;;;;;;18.69;71.74;101088.42;107635;1254;111696;-66
2023/07/24 04:14:22;;;;;;;;;;;;;;;18.77;71.81;101087.89;107672;1254;109112;-66
2023/07/24 04:16:50;;;;;;;;;;;;;;;18.85;71.81;101086.81;107642;1254;107220;-67
2023/07/24 04:19:18;;;;;;;;;;;;;;;18.88;71.56;101084.59;107597;1254;97703;-67
2023/07/24 04:21:47;;;;;;;;;;;;;;;18.93;71.42;101083.84;107608;1251;97806;-66
2023/07/24 04:24:15;;;;;;;;;;;;;;;18.99;71.11;101085.48;107545;1254;111252;-69
2023/07/24 04:26:43;;;;;;;;;;;;;;;19.05;70.93;101085.25;107539;1250;109416;-66
2023/07/24 04:29:11;;;;;;;;;;;;;;;19.12;70.83;101085.02;107537;1254;108335;-68
2023/07/24 04:31:57;;;;;;;;;;;;;;;19.19;70.86;101084.77;107544;1254;98581;-68
2023/07/24 04:34:26;;;;;;;;;;;;;;;19.26;70.85;101077.68;107466;1251;97806;-67
2023/07/24 04:36:55;;;;;;;;;;;;;;;19.34;70.55;101079.08;107527;1251;111651;-66
2023/07/24 04:39:23;;;;;;;;;;;;;;;19.39;70.13;101078.86;107550;1251;109865;-67
2023/07/24 04:41:52;;;;;;;;;;;;;;;19.44;69.83;101077.79;107538;1254;108379;-68
2023/07/24 04:44:20;;;;;;;;;;;;;;;19.49;69.63;101075.80;107554;1251;97806;-67
2023/07/24 04:46:48;;;;;;;;;;;;;;;19.56;69.41;101070.41;107641;1254;97802;-66
2023/07/24 04:49:16;;;;;;;;;;;;;;;19.61;68.98;101070.09;107673;1251;111862;-69
2023/07/24 04:51:44;;;;;;;;;;;;;;;19.65;68.94;101071.41;107598;1256;109319;-68
2023/07/24 04:54:12;;;;;;;;;;;;;;;19.68;68.64;101071.29;107504;1254;106759;-67
2023/07/24 04:56:41;;;;;;;;;;;;;;;19.71;68.26;101068.60;107587;1254;97819;-67
2023/07/24 04:59:09;;;;;;;;;;;;;;;19.76;68.35;101068.16;107662;1253;97726;-66
2023/07/24 05:01:37;;;;;;;;;;;;;;;19.83;68.03;101067.89;107572;1254;111908;-67
2023/07/24 05:04:06;;;;;;;;;;;;;;;19.87;67.71;101065.02;107655;1254;109913;-70
2023/07/24 05:06:38;;;;;;;;;;;;;;;19.93;67.58;101063.64;107517;1251;107560;-69
2023/07/24 05:09:06;;;;;;;;;;;;;;;19.99;67.62;101064.65;107642;1251;97807;-67
2023/07/24 05:11:35;;;;;;;;;;;;;;;20.06;67.32;101062.34;107655;1253;97842;-69
2023/07/24 05:14:03;;;;;;;;;;;;;;;20.12;67.06;101063.08;107663;1251;111972;-67
2023/07/24 05:16:31;;;;;;;;;;;;;;;20.16;66.75;101067.21;107612;1251;109381;-66
2023/07/24 05:19:00;;;;;;;;;;;;;;;20.22;66.37;101065.63;107508;1251;108739;-67
2023/07/24 05:21:28;;;;;;;;;;;;;;;20.26;66.04;101061.68;107544;1251;97671;-67
2023/07/24 05:23:56;;;;;;;;;;;;;;;20.32;66.01;101064.06;107651;1254;97903;-66
2023/07/24 05:26:25;;;;;;;;;;;;;;;20.39;65.85;101065.35;107584;1251;111111;-66
2023/07/24 05:28:53;;;;;;;;;;;;;;;20.46;65.81;101069.52;107507;1251;108297;-66
2023/07/24 05:31:21;;;;;;;;;;;;;;;20.53;65.81;101068.09;107535;1254;108878;-67
2023/07/24 05:33:49;;;;;;;;;;;;;;;20.59;65.61;101063.36;107663;1253;97831;-68
2023/07/24 05:36:17;;;;;;;;;;;;;;;20.64;65.28;101060.54;107584;1251;97723;-68
2023/07/24 05:38:46;;;;;;;;;;;;;;;20.69;65.05;101060.43;107565;1251;111758;-66
2023/07/24 05:41:15;;;;;;;;;;;;;;;20.73;64.72;101058.52;107460;1251;108302;-69
2023/07/24 05:43:43;;;;;;;;;;;;;;;20.76;64.48;101055.63;107485;1251;108057;-68
2023/07/24 05:46:11;;;;;;;;;;;;;;;20.79;64.26;101056.34;107610;1251;97885;-72
2023/07/24 05:48:39;;;;;;;;;;;;;;;20.84;64.30;101054.28;107549;1251;97872;-67
2023/07/24 05:51:07;;;;;;;;;;;;;;;20.88;64.33;101051.33;107557;1251;111294;-67
2023/07/24 05:53:36;;;;;;;;;;;;;;;20.93;63.94;101053.84;107512;1254;109347;-67
2023/07/24 05:56:04;;;;;;;;;;;;;;;20.99;63.79;101052.05;107516;1254;108227;-67
2023/07/24 05:58:32;;;;;;;;;;;;;;;21.05;63.56;101050.10;107619;1254;97823;-67
2023/07/24 06:01:00;;;;;;;;;;;;;;;21.10;63.26;101047.67;107639;1251;97834;-67
2023/07/24 06:03:28;;;;;;;;;;;;;;;21.15;63.26;101046.23;107567;1251;111163;-67
2023/07/24 06:05:57;;;;;;;;;;;;;;;21.20;63.25;101041.55;107513;1251;108735;-68
2023/07/24 06:08:25;;;;;;;;;;;;;;;21.25;63.34;101035.77;107603;1256;107325;-66
2023/07/24 06:10:53;;;;;;;;;;;;;;;21.31;63.29;101037.83;107519;1251;98170;-68
2023/07/24 06:13:22;;;;;;;;;;;;;;;21.37;63.33;101037.23;107525;1251;97698;-69
2023/07/24 06:15:50;;;;;;;;;;;;;;;21.41;63.13;101035.71;107548;1251;111214;-66
2023/07/24 06:18:19;;;;;;;;;;;;;;;21.46;62.95;101033.25;107498;1251;109734;-65
2023/07/24 06:20:47;;;;;;;;;;;;;;;21.52;62.90;101030.32;107505;1251;108571;-66
2023/07/24 06:23:15;;;;;;;;;;;;;;;21.57;62.56;101030.91;107501;1251;97790;-69
2023/07/24 06:25:43;;;;;;;;;;;;;;;21.66;61.81;101028.18;107540;1251;97893;-68
2023/07/24 06:28:11;;;;;;;;;;;;;;;21.75;61.35;101030.23;107516;1251;111296;-68
2023/07/24 06:30:39;;;;;;;;;;;;;;;21.83;61.06;101028.35;107487;1251;110274;-66
2023/07/24 06:33:07;;;;;;;;;;;;;;;21.90;60.83;101030.61;107514;1251;107897;-68
2023/07/24 06:35:36;;;;;;;;;;;;;;;21.99;59.90;101029.95;107520;1251;97903;-71
2023/07/24 06:38:04;;;;;;;;;;;;;;;22.07;59.71;101025.98;107530;1251;97818;-70
2023/07/24 06:40:32;;;;;;;;;;;;;;;22.14;59.68;101024.66;107567;1251;110855;-68
2023/07/24 06:43:00;;;;;;;;;;;;;;;22.21;59.58;101026.73;107536;1251;109991;-67
2023/07/24 06:45:28;;;;;;;;;;;;;;;22.27;59.17;101024.26;107529;1251;107960;-67
2023/07/24 06:47:56;;;;;;;;;;;;;;;22.35;58.86;101017.52;107534;1251;98496;-68
2023/07/24 06:50:24;;;;;;;;;;;;;;;22.43;58.57;101014.62;107518;1251;97893;-67
2023/07/24 06:52:53;;;;;;;;;;;;;;;22.51;58.99;101012.30;107669;1253;111639;-70
2023/07/24 06:55:21;;;;;;;;;;;;;;;22.57;58.87;101013.61;107654;1254;110380;-66
2023/07/24 06:57:50;;;;;;;;;;;;;;;22.65;58.47;101012.35;107512;1251;106711;-68
2023/07/24 07:00:18;;;;;;;;;;;;;;;22.74;58.09;101011.89;107559;1250;97876;-65
2023/07/24 07:02:46;;;;;;;;;;;;;;;22.82;57.73;101016.06;107524;1251;97903;-66
2023/07/24 07:05:14;;;;;;;;;;;;;;;22.89;57.57;101010.78;107529;1254;111341;-67
2023/07/24 07:07:42;;;;;;;;;;;;;;;22.96;57.56;101005.70;107512;1251;109076;-67
2023/07/24 07:10:11;;;;;;;;;;;;;;;23.03;57.44;101003.67;107506;1251;108479;-67
2023/07/24 07:12:38;;;;;;;;;;;;;;;23.10;57.09;101003.45;107629;1254;97880;-66
2023/07/24 07:15:07;;;;;;;;;;;;;;;23.19;56.41;101001.67;107659;1255;97691;-65
2023/07/24 07:17:35;;;;;;;;;;;;;;;23.28;56.06;101002.98;107631;1254;111892;-66
2023/07/24 07:20:04;;;;;;;;;;;;;;;23.39;56.14;100999.89;107665;1252;109012;-67
2023/07/24 07:22:32;;;;;;;;;;;;;;;23.47;55.98;100994.93;107614;1254;107308;-66
2023/07/24 07:25:00;;;;;;;;;;;;;;;23.53;55.44;100992.73;107666;1251;97708;-67
2023/07/24 07:27:28;;;;;;;;;;;;;;;23.62;55.43;100990.02;107603;1251;97925;-67
2023/07/24 07:29:56;;;;;;;;;;;;;;;23.70;54.54;100987.27;107525;1251;112184;-71
2023/07/24 07:32:25;;;;;;;;;;;;;;;23.79;53.61;100988.21;107528;1251;109274;-66
2023/07/24 07:34:53;;;;;;;;;;;;;;;23.87;53.80;100987.74;107578;1251;108155;-67
2023/07/24 07:37:21;;;;;;;;;;;;;;;23.99;53.30;100986.66;107643;1251;97915;-68
2023/07/24 07:39:52;;;;;;;;;;;;;;;24.10;52.64;100986.75;107549;1251;97694;-74
2023/07/24 07:42:20;;;;;;;;;;;;;;;24.20;51.87;100986.71;107615;1254;111625;-69
2023/07/24 07:44:49;;;;;;;;;;;;;;;24.29;51.56;100982.81;107661;1255;109596;-68
2023/07/24 07:47:17;;;;;;;;;;;;;;;24.40;51.54;100983.16;107607;1257;108394;-68
2023/07/24 07:49:48;;;;;;;;;;;;;;;24.53;50.45;100983.90;107582;1251;97829;-70
2023/07/24 07:52:20;;;;;;;;;;;;;;;24.63;50.11;100984.75;107506;1251;98267;-71
2023/07/24 07:54:48;;;;;;;;;;;;;;;24.72;49.38;100976.76;107649;1250;111045;-69
2023/07/24 07:57:17;;;;;;;;;;;;;;;24.81;48.59;100976.11;107517;1251;109166;-70
2023/07/24 07:59:46;;;;;;;;;;;;;;;24.85;48.97;100971.04;107554;1251;108285;-68
2023/07/24 08:02:15;;;;;;;;;;;;;;;24.89;48.80;100975.69;107513;1251;97837;-68
2023/07/24 08:04:43;;;;;;;;;;;;;;;24.98;48.02;100971.30;107123;1256;97852;-70
2023/07/24 08:07:12;;;;;;;;;;;;;;;25.05;47.69;100966.55;107657;1255;111606;-67
2023/07/24 08:09:40;;;;;;;;;;;;;;;25.14;46.74;100965.48;107610;1256;110435;-65
2023/07/24 08:12:08;;;;;;;;;;;;;;;25.20;47.30;100960.13;107529;1250;108352;-66
2023/07/24 08:14:36;;;;;;;;;;;;;;;25.29;45.23;100964.94;107526;1251;97979;-68
2023/07/24 08:17:05;;;;;;;;;;;;;;;25.38;44.72;100958.02;107561;1251;97883;-67
2023/07/24 08:19:33;;;;;;;;;;;;;;;25.50;45.25;100953.95;107639;1251;111814;-67
2023/07/24 08:22:01;;;;;;;;;;;;;;;25.60;44.09;100950.34;107522;1251;109641;-67
2023/07/24 08:24:29;;;;;;;;;;;;;;;25.71;43.99;100953.67;107517;1250;108063;-68
2023/07/24 08:26:57;;;;;;;;;;;;;;;25.80;44.62;100945.50;107577;1251;97822;-69
2023/07/24 08:29:25;;;;;;;;;;;;;;;25.91;43.36;100944.06;107521;1254;97835;-68
2023/07/24 08:31:53;;;;;;;;;;;;;;;26.01;42.15;100946.71;107541;1251;110853;-67
2023/07/24 08:34:22;;;;;;;;;;;;;;;26.12;43.15;100943.48;107513;1251;108440;-66
2023/07/24 08:36:51;;;;;;;;;;;;;;;26.22;41.57;100947.05;107677;1251;109479;-68
2023/07/24 08:39:19;;;;;;;;;;;;;;;26.33;41.21;100944.46;107513;1251;97779;-68
2023/07/24 08:41:47;;;;;;;;;;;;;;;26.45;40.72;100941.40;107522;1251;97736;-68
2023/07/24 08:44:15;;;;;;;;;;;;;;;26.55;39.36;100940.33;107671;1253;111213;-69
2023/07/24 08:46:45;;;;;;;;;;;;;;;26.64;39.38;100941.13;107633;1251;109089;-69
2023/07/24 08:49:14;;;;;;;;;;;;;;;26.75;38.74;100937.04;107601;1251;107603;-70
2023/07/24 08:51:44;;;;;;;;;;;;;;;26.86;39.38;100934.21;107454;1251;97825;-69
2023/07/24 08:54:12;;;;;;;;;;;;;;;26.98;38.54;100928.83;107536;1251;97917;-69
2023/07/24 08:56:41;;;;;;;;;;;;;;;27.14;38.76;100928.08;107527;1254;112189;-70
2023/07/24 08:59:09;;;;;;;;;;;;;;;27.24;37.44;100929.63;107517;1251;108634;-68
2023/07/24 09:01:37;;;;;;;;;;;;;;;27.38;37.23;100921.56;107483;1250;107308;-68
2023/07/24 09:04:05;;;;;;;;;;;;;;;27.56;38.01;100919.23;107606;1253;97832;-73
2023/07/24 09:06:37;;;;;;;;;;;;;;;27.72;38.28;100919.38;107650;1251;97707;-69
2023/07/24 09:09:12;;;;;;;;;;;;;;;27.84;36.76;100914.95;107522;1251;110798;-70
2023/07/24 09:11:51;;;;;;;;;;;;;;;28.02;37.01;100912.11;107459;1251;108343;-66
2023/07/24 09:14:22;;;;;;;;;;;;;;;28.21;36.66;100901.80;107515;1251;107752;-65
2023/07/24 09:17:01;;;;;;;;;;;;;;;28.39;36.28;100901.84;107477;1251;97886;-67
2023/07/24 09:19:32;;;;;;;;;;;;;;;28.63;36.58;100901.99;107521;1250;97890;-73
2023/07/24 09:22:10;;;;;;;;;;;;;;;28.84;35.44;100905.47;107637;1251;111744;-69
2023/07/24 09:24:59;;;;;;;;;;;;;;;29.08;35.65;100897.54;107519;1254;109785;-67
2023/07/24 09:27:28;;;;;;;;;;;;;;;29.42;35.01;100897.42;107593;1251;106814;-69
2023/07/24 09:30:01;;;;;;;;;;;;;;;29.78;34.46;100896.28;107498;1251;97912;-66
2023/07/24 09:32:34;;;;;;;;;;;;;;;30.10;33.77;100889.73;107633;1251;97829;-68
2023/07/24 09:35:04;;;;;;;;;;;;;;;30.41;33.78;100879.59;107591;1251;111264;-68
2023/07/24 09:37:35;;;;;;;;;;;;;;;30.82;33.32;100876.52;107555;1250;110289;-70
2023/07/24 09:40:10;;;;;;;;;;;;;;;31.26;32.56;100877.51;107584;1250;107673;-68
2023/07/24 09:42:39;;;;;;;;;;;;;;;31.57;31.15;100872.58;107614;1251;97915;-69
2023/07/24 09:45:31;;;;;;;;;;;;;;;31.95;32.06;100867.41;107638;1253;97695;-67
2023/07/24 09:48:03;;;;;;;;;;;;;;;32.32;30.95;100859.28;107637;1251;112071;-69
2023/07/24 09:50:39;;;;;;;;;;;;;;;32.71;31.25;100855.52;107626;1255;109206;-70
2023/07/24 09:53:12;;;;;;;;;;;;;;;33.01;28.78;100857.20;107635;1251;109332;-68
2023/07/24 09:55:46;;;;;;;;;;;;;;;33.19;28.53;100850.05;107673;1254;98508;-66
2023/07/24 09:58:15;;;;;;;;;;;;;;;33.37;28.19;100855.26;107606;1253;97918;-70
2023/07/24 10:00:44;;;;;;;;;;;;;;;33.62;28.85;100846.23;107675;1252;110324;-68
2023/07/24 10:03:16;;;;;;;;;;;;;;;33.93;28.26;100849.96;107657;1254;109165;-68
2023/07/24 10:05:44;;;;;;;;;;;;;;;34.18;27.36;100842.93;107635;1252;108807;-68
2023/07/24 10:08:14;;;;;;;;;;;;;;;34.45;27.32;100839.89;107612;1254;97825;-72
2023/07/24 10:10:42;;;;;;;;;;;;;;;34.70;26.19;100843.85;107615;1254;96966;-67
2023/07/24 10:13:14;;;;;;;;;;;;;;;34.87;25.17;100838.39;107660;1254;111860;-68
2023/07/24 10:15:42;;;;;;;;;;;;;;;35.14;25.13;100833.14;107590;1254;109717;-68
2023/07/24 10:18:10;;;;;;;;;;;;;;;35.62;25.28;100827.30;107603;1256;107033;-69
2023/07/24 10:20:40;;;;;;;;;;;;;;;36.11;25.33;100822.22;107602;1256;97914;-70
2023/07/24 10:23:10;;;;;;;;;;;;;;;36.69;24.86;100815.46;107611;1252;97858;-70
2023/07/24 10:25:43;;;;;;;;;;;;;;;37.22;24.75;100812.19;107667;1253;111421;-68
2023/07/24 10:28:12;;;;;;;;;;;;;;;37.79;24.75;100811.72;107611;1251;109904;-68
2023/07/24 10:30:41;;;;;;;;;;;;;;;38.23;23.60;100805.38;107661;1251;107022;-66
2023/07/24 10:33:20;;;;;;;;;;;;;;;38.34;22.85;100803.79;107671;1254;97911;-73
2023/07/24 10:36:03;;;;;;;;;;;;;;;38.67;22.68;100798.68;107689;1253;97828;-68
2023/07/24 10:38:39;;;;;;;;;;;;;;;39.23;23.18;100795.48;107478;1254;110060;-67
2023/07/24 10:41:09;;;;;;;;;;;;;;;39.57;21.49;100787.46;107656;1251;109042;-69
2023/07/24 10:43:40;;;;;;;;;;;;;;;39.83;21.86;100781.52;107638;1252;107752;-69
2023/07/24 10:46:11;;;;;;;;;;;;;;;40.17;21.39;100775.19;107609;1251;97806;-70
2023/07/24 10:48:48;;;;;;;;;;;;;;;40.50;21.46;100766.73;107566;1254;97824;-70
2023/07/24 10:51:21;;;;;;;;;;;;;;;40.99;21.44;100768.20;107620;1253;112235;-71
2023/07/24 10:53:58;;;;;;;;;;;;;;;41.28;19.29;100766.86;107633;1254;109321;-71
2023/07/24 10:56:30;;;;;;;;;;;;;;;41.50;19.72;100758.41;107599;1253;108071;-73
2023/07/24 10:59:07;;;;;;;;;;;;;;;41.58;18.58;100758.70;107551;1253;97807;-70
2023/07/24 11:01:44;;;;;;;;;;;;;;;41.63;19.10;100754.43;107507;1253;97974;-70
2023/07/24 11:04:21;;;;;;;;;;;;;;;41.62;18.17;100758.27;107489;1254;112184;-71
2023/07/24 11:06:57;;;;;;;;;;;;;;;41.67;19.49;100752.96;107590;1256;110145;-69
2023/07/24 11:09:47;;;;;;;;;;;;;;;41.92;18.80;100743.41;107484;1254;108598;-70
2023/07/24 11:12:18;;;;;;;;;;;;;;;42.20;18.89;100747.52;107592;1253;97876;-69
2023/07/24 11:14:50;;;;;;;;;;;;;;;42.59;17.95;100741.90;107532;1252;98668;-69
2023/07/24 11:17:18;;;;;;;;;;;;;;;42.63;17.45;100740.30;107442;1251;112403;-69
2023/07/24 11:19:47;;;;;;;;;;;;;;;42.42;16.67;100743.05;107661;1254;109315;-67
2023/07/24 11:22:15;;;;;;;;;;;;;;;42.27;17.63;100733.36;107636;1255;108304;-68
2023/07/24 11:24:46;;;;;;;;;;;;;;;42.63;17.53;100723.38;107606;1251;98012;-69
2023/07/24 11:27:15;;;;;;;;;;;;;;;42.69;16.87;100718.86;107638;1251;97825;-69
2023/07/24 11:29:49;;;;;;;;;;;;;;;42.55;17.59;100719.70;107674;1251;111178;-66
2023/07/24 11:32:19;;;;;;;;;;;;;;;42.77;16.92;100721.13;107677;1254;109807;-68
2023/07/24 11:34:51;;;;;;;;;;;;;;;43.06;16.93;100717.77;107590;1251;108569;-68
2023/07/24 11:37:19;;;;;;;;;;;;;;;43.36;16.34;100713.38;107577;1253;97850;-68
2023/07/24 11:39:58;;;;;;;;;;;;;;;43.53;16.77;100709.63;107601;1251;97866;-69
2023/07/24 11:42:27;;;;;;;;;;;;;;;43.89;16.76;100703.70;107631;1253;112658;-67
2023/07/24 11:45:02;;;;;;;;;;;;;;;44.22;16.39;100697.45;107626;1254;111802;-70
2023/07/24 11:47:30;;;;;;;;;;;;;;;44.47;15.61;100696.27;107623;1254;107130;-67
2023/07/24 11:50:02;;;;;;;;;;;;;;;44.68;14.99;100698.03;107596;1256;97969;-66
2023/07/24 11:52:43;;;;;;;;;;;;;;;44.69;14.78;100697.65;107636;1250;97912;-67
2023/07/24 11:55:12;;;;;;;;;;;;;;;44.50;14.99;100687.27;107596;1254;111405;-68
2023/07/24 11:57:40;;;;;;;;;;;;;;;44.73;15.10;100682.90;107604;1250;109669;-67
2023/07/24 12:00:35;;;;;;;;;;;;;;;44.90;14.99;100683.77;107564;1254;108095;-68
2023/07/24 12:03:04;;;;;;;;;;;;;;;45.19;14.59;100680.45;107673;1251;97895;-69
2023/07/24 12:05:43;;;;;;;;;;;;;;;45.31;14.29;100680.68;107622;1251;97709;-75
2023/07/24 12:08:17;;;;;;;;;;;;;;;45.31;14.63;100681.08;107683;1251;111707;-69
2023/07/24 12:10:45;;;;;;;;;;;;;;;45.61;14.56;100673.67;107662;1254;109756;-68
2023/07/24 12:13:13;;;;;;;;;;;;;;;45.96;14.31;100668.81;107629;1251;109229;-69
2023/07/24 12:15:41;;;;;;;;;;;;;;;45.99;14.06;100663.35;107564;1254;97811;-68
2023/07/24 12:18:09;;;;;;;;;;;;;;;46.09;14.64;100661.23;107571;1251;97885;-72
2023/07/24 12:20:37;;;;;;;;;;;;;;;46.48;14.36;100661.55;107645;1251;112272;-69
2023/07/24 12:23:05;;;;;;;;;;;;;;;46.89;14.21;100651.42;107617;1251;109349;-69
2023/07/24 12:25:34;;;;;;;;;;;;;;;47.17;13.81;100651.34;107557;1251;108572;-67
2023/07/24 12:28:02;;;;;;;;;;;;;;;47.33;13.74;100651.08;107533;1251;97692;-67
2023/07/24 12:30:30;;;;;;;;;;;;;;;47.59;13.58;100644.66;107599;1251;97851;-67
2023/07/24 12:32:58;;;;;;;;;;;;;;;47.67;13.23;100646.67;107588;1254;111530;-69